createdAt,value
2018-12-31T00:01:32.233Z,6.60
2018-12-31T00:04:01.218Z,6.73
2018-12-31T00:06:30.172Z,6.83
2018-12-31T00:08:59.267Z,6.67
2018-12-31T00:11:28.288Z,6.30
2018-12-31T00:13:57.361Z,6.30
2018-12-31T00:16:26.374Z,6.20
2018-12-31T00:18:55.339Z,6.67
2018-12-31T00:21:24.371Z,6.37
2018-12-31T00:23:53.349Z,8.63
2018-12-31T00:26:22.449Z,6.87
2018-12-31T00:28:51.496Z,6.40
2018-12-31T00:31:20.623Z,7.67
2018-12-31T00:33:49.613Z,7.53
2018-12-31T00:36:18.647Z,10.37
2018-12-31T00:38:47.642Z,11.10
2018-12-31T00:41:16.691Z,10.90
2018-12-31T00:43:45.723Z,12.27
2018-12-31T00:46:14.772Z,15.27
2018-12-31T00:48:43.816Z,16.63
2018-12-31T05:52:19.969Z,232.30
2018-12-31T05:54:49.088Z,220.83
2018-12-31T05:57:18.155Z,326.70
2018-12-31T05:59:47.285Z,160.63
2018-12-31T06:02:16.378Z,204.37
2018-12-31T06:04:45.480Z,187.23
2018-12-31T06:07:14.548Z,154.83
2018-12-31T06:09:43.839Z,88.43
2018-12-31T06:12:12.884Z,116.17
2018-12-31T06:14:41.969Z,84.50
2018-12-31T06:17:11.025Z,122.90
2018-12-31T06:19:40.144Z,82.40
2018-12-31T06:22:10.445Z,72.70
2018-12-31T06:24:39.459Z,83.47
2018-12-31T06:27:08.515Z,91.37
2018-12-31T06:29:37.627Z,69.10
2018-12-31T06:32:06.776Z,68.60
2018-12-31T06:34:35.881Z,82.13
2018-12-31T06:37:05.102Z,70.77
2018-12-31T06:39:34.175Z,77.80
2018-12-31T06:42:03.217Z,74.30
2018-12-31T06:44:32.296Z,83.40
2018-12-31T06:47:01.380Z,77.03
2018-12-31T06:49:30.504Z,68.97
2018-12-31T06:51:59.568Z,67.60
2018-12-31T06:54:28.734Z,66.73
2018-12-31T06:56:57.845Z,77.87
2018-12-31T06:59:26.938Z,75.60
2018-12-31T07:01:56.060Z,73.93
2018-12-31T07:04:25.154Z,79.60
2018-12-31T07:06:54.257Z,72.80
2018-12-31T07:09:23.326Z,68.07
2018-12-31T07:11:52.430Z,63.97
2018-12-31T07:14:21.590Z,69.17
2018-12-31T07:16:50.746Z,66.73
2018-12-31T07:19:20.112Z,67.13
2018-12-31T07:21:49.207Z,71.13
2018-12-31T07:24:18.295Z,64.10
2018-12-31T07:26:47.375Z,61.60
2018-12-31T07:29:16.722Z,67.23
2018-12-31T07:31:45.872Z,71.20
2018-12-31T07:34:14.993Z,62.77
2018-12-31T07:36:44.125Z,65.47
2018-12-31T07:39:13.227Z,69.17
2018-12-31T07:41:42.331Z,69.13
2018-12-31T07:44:11.393Z,72.43
2018-12-31T07:46:40.557Z,71.43
2018-12-31T07:49:09.722Z,73.50
2018-12-31T07:51:38.793Z,71.83
2018-12-31T07:54:07.915Z,64.00
2018-12-31T07:56:37.094Z,70.63
2018-12-31T07:59:06.309Z,63.33
2018-12-31T08:01:35.445Z,58.07
2018-12-31T08:04:06.732Z,59.50
2018-12-31T08:06:35.815Z,55.13
2018-12-31T08:09:06.378Z,55.17
2018-12-31T08:11:35.473Z,61.27
2018-12-31T08:14:04.699Z,56.27
2018-12-31T08:16:33.884Z,56.40
2018-12-31T08:19:02.982Z,60.30
2018-12-31T08:21:32.078Z,58.90
2018-12-31T08:24:01.170Z,55.87
2018-12-31T08:26:30.240Z,62.33
2018-12-31T08:28:59.359Z,58.97
2018-12-31T08:31:28.495Z,57.57
2018-12-31T08:33:57.554Z,57.80
2018-12-31T08:36:27.881Z,58.23
2018-12-31T08:38:56.976Z,58.50
2018-12-31T08:41:26.067Z,59.20
2018-12-31T08:43:55.150Z,59.33
2018-12-31T08:46:24.267Z,58.97
2018-12-31T08:48:53.343Z,67.30
2018-12-31T08:51:22.395Z,66.63
2018-12-31T08:53:51.491Z,56.03
2018-12-31T08:56:20.568Z,62.07
2018-12-31T08:58:49.725Z,57.53
2018-12-31T09:01:18.959Z,59.03
2018-12-31T09:03:48.106Z,59.87
2018-12-31T09:06:17.166Z,53.70
2018-12-31T09:08:46.285Z,53.33
2018-12-31T09:11:15.424Z,51.37
2018-12-31T09:13:44.487Z,52.13
2018-12-31T09:16:13.722Z,54.00
2018-12-31T09:18:42.799Z,59.57
2018-12-31T09:21:11.941Z,55.20
2018-12-31T09:23:41.065Z,53.13
2018-12-31T09:26:11.208Z,57.77
2018-12-31T09:28:40.500Z,57.63
2018-12-31T09:31:09.631Z,56.83
2018-12-31T09:33:38.753Z,60.83
2018-12-31T09:36:07.920Z,50.73
2018-12-31T09:38:37.171Z,51.13
2018-12-31T09:41:06.586Z,53.63
2018-12-31T09:43:35.739Z,53.20
2018-12-31T09:46:05.054Z,47.00
2018-12-31T09:48:34.175Z,61.33
2018-12-31T09:51:03.358Z,49.53
2018-12-31T09:53:32.456Z,53.43
2018-12-31T09:56:01.618Z,50.00
2018-12-31T09:58:30.733Z,54.03
2018-12-31T10:00:59.802Z,50.53
2018-12-31T10:03:28.901Z,53.17
2018-12-31T10:05:57.991Z,51.37
2018-12-31T10:08:27.116Z,48.67
2018-12-31T10:10:56.351Z,51.63
2018-12-31T10:13:25.447Z,48.97
2018-12-31T10:15:54.660Z,60.37
2018-12-31T10:18:23.782Z,53.77
2018-12-31T10:20:52.867Z,60.30
2018-12-31T10:23:21.957Z,59.63
2018-12-31T10:25:52.144Z,66.70
2018-12-31T10:28:21.281Z,70.70
2018-12-31T10:30:50.636Z,64.70
2018-12-31T10:33:19.782Z,72.53
2018-12-31T10:35:49.115Z,76.13
2018-12-31T10:38:21.699Z,73.23
2018-12-31T10:40:50.839Z,86.37
2018-12-31T10:43:19.945Z,74.77
2018-12-31T10:45:49.207Z,86.37
2018-12-31T10:48:18.527Z,83.43
2018-12-31T10:50:47.868Z,84.60
2018-12-31T10:53:17.192Z,79.97
2018-12-31T10:55:46.243Z,84.93
2018-12-31T10:58:15.402Z,91.50
2018-12-31T11:00:44.526Z,80.93
2018-12-31T11:03:13.714Z,91.23
2018-12-31T11:05:42.904Z,94.87
2018-12-31T11:08:12.049Z,83.63
2018-12-31T11:10:41.230Z,91.83
2018-12-31T11:13:10.563Z,86.93
2018-12-31T11:15:39.625Z,90.07
2018-12-31T11:18:08.761Z,100.97
2018-12-31T11:20:37.889Z,87.80
2018-12-31T11:23:07.116Z,87.13
2018-12-31T11:25:37.772Z,86.87
2018-12-31T11:28:06.986Z,89.30
2018-12-31T11:30:36.063Z,84.07
2018-12-31T11:33:05.210Z,85.80
2018-12-31T11:35:34.266Z,79.67
2018-12-31T11:38:03.390Z,82.43
2018-12-31T11:40:32.489Z,78.47
2018-12-31T11:43:01.651Z,77.23
2018-12-31T11:45:30.778Z,76.10
2018-12-31T11:48:03.013Z,77.33
2018-12-31T11:50:32.361Z,85.23
2018-12-31T11:53:01.426Z,87.67
2018-12-31T11:55:31.220Z,78.00
2018-12-31T11:58:00.316Z,84.27
2018-12-31T12:00:29.451Z,77.93
2018-12-31T12:02:58.682Z,82.13
2018-12-31T12:05:27.833Z,81.47
2018-12-31T12:07:56.862Z,83.80
2018-12-31T12:10:26.090Z,80.30
2018-12-31T12:12:55.148Z,83.13
2018-12-31T12:15:24.384Z,82.87
2018-12-31T12:17:54.689Z,89.50
2018-12-31T12:20:23.875Z,83.07
2018-12-31T12:22:53.202Z,80.23
2018-12-31T12:25:22.259Z,90.90
2018-12-31T12:27:51.363Z,89.80
2018-12-31T12:30:20.578Z,86.40
2018-12-31T12:32:49.727Z,81.73
2018-12-31T12:35:18.783Z,83.40
2018-12-31T12:37:48.614Z,87.90
2018-12-31T12:40:17.739Z,80.30
2018-12-31T12:42:46.901Z,81.83
2018-12-31T12:45:16.060Z,85.60
2018-12-31T12:51:22.889Z,73.53
2018-12-31T12:53:52.038Z,75.20
2018-12-31T12:56:21.477Z,76.10
2018-12-31T12:58:50.477Z,82.27
2018-12-31T13:01:19.548Z,86.37
2018-12-31T13:03:48.559Z,75.77
2018-12-31T13:06:20.222Z,83.13
2018-12-31T13:08:49.964Z,81.40
2018-12-31T13:11:19.310Z,79.70
2018-12-31T13:13:48.402Z,80.10
2018-12-31T13:16:29.576Z,76.63
2018-12-31T13:18:58.867Z,69.67
2018-12-31T13:21:27.875Z,80.93
2018-12-31T13:23:56.898Z,76.50
2018-12-31T13:26:25.878Z,81.50
2018-12-31T13:29:00.579Z,75.30
2018-12-31T13:31:29.605Z,64.80
2018-12-31T13:33:58.740Z,71.57
2018-12-31T13:36:30.760Z,73.90
2018-12-31T13:38:59.804Z,75.27
2018-12-31T13:41:35.023Z,69.13
2018-12-31T13:44:12.403Z,66.67
2018-12-31T13:46:44.482Z,71.50
2018-12-31T13:49:13.738Z,68.33
2018-12-31T13:51:54.770Z,63.13
2018-12-31T13:54:23.862Z,71.27
2018-12-31T13:56:53.025Z,70.87
2018-12-31T13:59:22.055Z,67.50
2018-12-31T14:01:51.066Z,74.43
2018-12-31T14:04:20.163Z,68.03
2018-12-31T14:06:49.161Z,74.33
2018-12-31T14:09:18.185Z,62.27
2018-12-31T14:11:47.307Z,71.10
2018-12-31T14:14:16.336Z,68.20
2018-12-31T14:16:45.332Z,72.80
2018-12-31T14:19:14.441Z,66.83
2018-12-31T14:21:43.634Z,66.70
2018-12-31T14:24:12.771Z,65.63
2018-12-31T14:26:41.795Z,62.63
2018-12-31T14:29:10.822Z,68.63
2018-12-31T14:31:39.888Z,73.57
2018-12-31T14:34:08.946Z,75.07
2018-12-31T14:36:38.039Z,64.13
2018-12-31T14:39:07.815Z,72.17
2018-12-31T14:41:36.855Z,69.17
2018-12-31T14:44:05.923Z,69.20
2018-12-31T14:46:35.121Z,66.77
2018-12-31T14:49:04.200Z,68.77
2018-12-31T14:51:33.194Z,71.90
2018-12-31T14:54:02.262Z,61.97
2018-12-31T14:56:31.282Z,72.73
2018-12-31T14:59:00.380Z,61.40
2018-12-31T15:01:29.487Z,59.30
2018-12-31T15:03:58.584Z,64.13
2018-12-31T15:06:27.637Z,63.63
2018-12-31T15:08:56.693Z,56.63
2018-12-31T15:11:25.726Z,59.83
2018-12-31T15:13:54.929Z,61.63
2018-12-31T15:16:23.972Z,61.20
2018-12-31T15:18:53.193Z,58.30
2018-12-31T15:21:22.447Z,55.37
2018-12-31T15:23:51.565Z,63.47
2018-12-31T15:26:20.563Z,59.67
2018-12-31T15:28:50.517Z,54.57
2018-12-31T15:31:19.658Z,55.80
2018-12-31T15:33:48.633Z,61.23
2018-12-31T15:36:17.721Z,58.03
2018-12-31T15:38:46.897Z,57.50
2018-12-31T15:41:15.983Z,68.07
2018-12-31T15:43:44.988Z,64.07
2018-12-31T15:46:20.202Z,58.87
2018-12-31T15:48:44.792Z,72.60
2018-12-31T15:51:14.213Z,71.07
2018-12-31T15:53:43.381Z,74.17
2018-12-31T15:56:12.441Z,75.80
2018-12-31T15:58:41.471Z,70.00
2018-12-31T16:01:10.527Z,80.77
2018-12-31T16:03:39.844Z,82.50
2018-12-31T16:06:09.178Z,77.50
2018-12-31T16:08:38.242Z,83.30
2018-12-31T16:11:07.275Z,85.80
2018-12-31T16:13:36.274Z,78.07
2018-12-31T16:16:06.394Z,80.50
2018-12-31T16:18:35.374Z,71.80
2018-12-31T16:21:05.831Z,72.10
2018-12-31T16:23:34.991Z,74.60
2018-12-31T16:26:04.027Z,70.23
2018-12-31T16:28:33.488Z,76.17
2018-12-31T16:31:02.560Z,66.10
2018-12-31T16:33:31.599Z,64.00
2018-12-31T16:36:01.066Z,80.00
2018-12-31T16:38:30.128Z,62.87
2018-12-31T16:40:59.434Z,62.67
2018-12-31T16:43:28.422Z,61.57
2018-12-31T16:45:57.498Z,68.47
2018-12-31T16:48:26.521Z,52.87
2018-12-31T16:50:55.571Z,57.77
2018-12-31T16:53:24.908Z,56.37
2018-12-31T16:55:54.081Z,54.33
2018-12-31T16:58:23.137Z,53.10
2018-12-31T17:00:52.188Z,49.90
2018-12-31T17:03:21.237Z,53.73
2018-12-31T17:05:50.618Z,52.63
2018-12-31T17:08:19.673Z,59.30
2018-12-31T17:10:51.789Z,55.93
2018-12-31T17:13:20.889Z,56.37
2018-12-31T17:15:49.918Z,51.30
2018-12-31T17:18:19.298Z,50.17
2018-12-31T17:20:48.360Z,53.60
2018-12-31T17:23:17.421Z,53.77
2018-12-31T17:25:46.446Z,47.20
2018-12-31T17:28:15.573Z,54.30
2018-12-31T17:30:44.976Z,53.80
2018-12-31T17:33:14.101Z,50.80
2018-12-31T17:35:44.847Z,53.97
2018-12-31T17:38:13.978Z,49.77
2018-12-31T17:40:43.209Z,48.07
2018-12-31T17:43:12.584Z,47.13
2018-12-31T17:45:41.513Z,45.43
2018-12-31T17:48:10.671Z,50.40
2018-12-31T17:50:39.671Z,52.03
2018-12-31T17:53:08.706Z,47.53
2018-12-31T17:55:38.185Z,50.90
2018-12-31T17:58:07.301Z,55.03
2018-12-31T18:00:36.327Z,45.90
2018-12-31T23:45:45.707Z,134.70
2018-12-31T23:48:14.731Z,128.77
2018-12-31T23:50:43.712Z,120.70
2018-12-31T23:53:13.006Z,105.17
2018-12-31T23:55:42.004Z,101.27
2018-12-31T23:58:10.981Z,109.23
